createdAt,value
2018-11-03T00:00:44.156Z,5.62
2018-11-03T00:03:14.102Z,5.60
2018-11-03T00:05:43.975Z,5.47
2018-11-03T00:08:13.907Z,5.39
2018-11-03T00:10:44.047Z,5.34
2018-11-03T00:13:13.903Z,5.28
2018-11-03T00:15:43.749Z,5.27
2018-11-03T00:18:13.826Z,5.20
2018-11-03T00:20:43.817Z,5.13
2018-11-03T00:23:13.661Z,5.15
2018-11-03T00:25:43.736Z,5.08
2018-11-03T00:28:13.733Z,5.09
2018-11-03T00:30:43.524Z,5.17
2018-11-03T00:33:13.485Z,5.20
2018-11-03T00:35:43.364Z,5.25
2018-11-03T00:38:13.399Z,5.26
2018-11-03T00:40:43.624Z,5.25
2018-11-03T00:43:13.702Z,5.31
2018-11-03T00:45:43.542Z,5.31
2018-11-03T00:48:13.324Z,5.26
2018-11-03T00:50:43.333Z,5.17
2018-11-03T00:53:13.365Z,5.08
2018-11-03T00:55:43.265Z,4.98
2018-11-03T00:58:13.245Z,4.95
2018-11-03T01:00:43.117Z,4.95
2018-11-03T01:03:19.728Z,4.89
2018-11-03T01:05:49.585Z,4.99
2018-11-03T01:08:19.563Z,5.06
2018-11-03T01:10:49.468Z,4.97
2018-11-03T01:13:19.372Z,4.94
2018-11-03T01:15:49.448Z,5.04
2018-11-03T01:18:19.624Z,5.10
2018-11-03T01:20:49.434Z,5.16
2018-11-03T01:23:19.208Z,5.18
2018-11-03T01:25:49.171Z,5.15
2018-11-03T01:28:19.325Z,5.08
2018-11-03T01:30:49.169Z,4.98
2018-11-03T01:33:18.970Z,5.05
2018-11-03T01:35:48.764Z,5.03
2018-11-03T01:38:18.626Z,4.97
2018-11-03T01:40:48.829Z,4.91
2018-11-03T01:43:18.589Z,4.78
2018-11-03T01:45:48.461Z,4.71
2018-11-03T01:48:18.353Z,4.74
2018-11-03T01:50:48.129Z,4.68
2018-11-03T01:53:17.978Z,4.61
2018-11-03T01:55:47.830Z,4.67
2018-11-03T01:58:18.047Z,4.81
2018-11-03T02:00:47.954Z,4.79
2018-11-03T02:03:17.888Z,4.72
2018-11-03T02:05:47.805Z,4.77
2018-11-03T02:08:17.689Z,4.85
2018-11-03T02:10:47.498Z,4.94
2018-11-03T02:13:17.332Z,5.03
2018-11-03T02:15:47.348Z,5.10
2018-11-03T02:18:17.989Z,5.13
2018-11-03T02:20:47.895Z,5.16
2018-11-03T02:23:17.947Z,5.19
2018-11-03T02:25:48.096Z,5.26
2018-11-03T02:28:18.040Z,5.23
2018-11-03T02:30:47.962Z,5.17
2018-11-03T02:33:17.857Z,5.09
2018-11-03T02:35:47.827Z,4.96
2018-11-03T02:38:17.716Z,4.87
2018-11-03T02:40:47.628Z,4.87
2018-11-03T02:43:17.695Z,4.89
2018-11-03T02:45:47.637Z,4.91
2018-11-03T02:48:17.433Z,4.99
2018-11-03T02:50:47.430Z,5.05
2018-11-03T02:53:17.288Z,5.03
2018-11-03T02:55:47.257Z,5.02
2018-11-03T02:58:17.316Z,4.98
2018-11-03T03:00:47.224Z,5.00
2018-11-03T03:03:17.150Z,5.01
2018-11-03T03:05:46.952Z,5.06
2018-11-03T03:08:16.893Z,4.99
2018-11-03T03:10:46.816Z,4.98
2018-11-03T03:13:16.715Z,5.01
2018-11-03T03:15:46.556Z,4.99
2018-11-03T03:18:16.554Z,4.99
2018-11-03T03:20:46.588Z,5.05
2018-11-03T03:23:16.491Z,5.04
2018-11-03T03:25:46.365Z,5.00
2018-11-03T03:28:16.257Z,5.00
2018-11-03T03:30:46.152Z,5.04
2018-11-03T03:33:16.054Z,5.05
2018-11-03T03:35:45.894Z,5.06
2018-11-03T03:38:15.664Z,5.09
2018-11-03T03:40:45.724Z,5.06
2018-11-03T03:43:15.628Z,5.05
2018-11-03T03:45:45.685Z,5.04
2018-11-03T03:48:15.842Z,5.05
2018-11-03T03:50:45.824Z,5.03
2018-11-03T03:53:15.809Z,4.98
2018-11-03T03:55:45.757Z,4.88
2018-11-03T03:58:15.728Z,4.88
2018-11-03T04:00:45.614Z,4.82
2018-11-03T04:03:15.548Z,4.84
2018-11-03T04:05:45.589Z,4.87
2018-11-03T04:08:15.509Z,4.86
2018-11-03T04:10:45.480Z,4.81
2018-11-03T04:13:15.383Z,4.78
2018-11-03T04:15:45.238Z,4.78
2018-11-03T04:18:15.065Z,4.75
2018-11-03T04:20:44.860Z,4.79
2018-11-03T04:23:14.762Z,4.80
2018-11-03T04:25:44.660Z,4.76
2018-11-03T04:28:14.486Z,4.70
2018-11-03T04:30:44.371Z,4.61
2018-11-03T04:33:14.261Z,4.62
2018-11-03T04:35:44.377Z,4.57
2018-11-03T04:38:14.479Z,4.59
2018-11-03T04:40:44.551Z,4.59
2018-11-03T04:43:14.554Z,4.61
2018-11-03T04:45:44.362Z,4.61
2018-11-03T04:48:14.245Z,4.59
2018-11-03T04:50:44.242Z,4.60
2018-11-03T04:53:14.235Z,4.64
2018-11-03T04:55:44.041Z,4.65
2018-11-03T04:58:14.129Z,4.66
2018-11-03T05:00:44.078Z,4.62
2018-11-03T05:03:13.920Z,4.66
2018-11-03T05:05:44.344Z,4.66
2018-11-03T05:08:14.685Z,4.66
2018-11-03T05:10:44.456Z,4.61
2018-11-03T05:13:14.329Z,4.59
2018-11-03T05:15:44.125Z,4.58
2018-11-03T05:18:14.232Z,4.65
2018-11-03T05:20:44.455Z,4.61
2018-11-03T05:23:14.534Z,4.59
2018-11-03T05:25:44.397Z,4.60
2018-11-03T05:28:14.197Z,4.58
2018-11-03T05:30:44.070Z,4.59
2018-11-03T05:33:14.190Z,4.55
2018-11-03T05:35:44.258Z,4.56
2018-11-03T05:38:14.204Z,4.57
2018-11-03T05:40:44.180Z,4.53
2018-11-03T05:43:14.260Z,4.56
2018-11-03T05:45:44.197Z,4.58
2018-11-03T05:48:14.115Z,4.59
2018-11-03T05:50:44.019Z,4.61
2018-11-03T05:53:13.992Z,4.54
2018-11-03T05:55:44.016Z,4.50
2018-11-03T05:58:13.891Z,4.44
2018-11-03T06:00:43.678Z,4.37
2018-11-03T06:03:13.647Z,4.37
2018-11-03T06:05:43.539Z,4.38
2018-11-03T06:08:13.671Z,4.40
2018-11-03T06:10:43.488Z,4.40
2018-11-03T06:13:13.376Z,4.37
2018-11-03T06:15:43.252Z,4.33
2018-11-03T06:18:13.126Z,4.37
2018-11-03T06:20:43.033Z,4.44
2018-11-03T06:23:13.005Z,4.48
2018-11-03T06:25:43.308Z,4.45
2018-11-03T06:28:13.244Z,4.50
2018-11-03T06:30:43.068Z,4.54
2018-11-03T06:33:13.095Z,4.59
2018-11-03T06:35:42.928Z,4.62
2018-11-03T06:38:12.815Z,4.64
2018-11-03T06:40:42.660Z,4.60
2018-11-03T06:43:12.662Z,4.54
2018-11-03T06:45:42.636Z,4.54
2018-11-03T06:48:12.519Z,4.59
2018-11-03T06:50:42.454Z,4.66
2018-11-03T06:53:12.336Z,4.59
2018-11-03T06:55:42.248Z,4.60
2018-11-03T06:58:12.378Z,4.62
2018-11-03T07:00:42.148Z,4.65
2018-11-03T07:03:12.154Z,4.72
2018-11-03T07:05:42.130Z,4.84
2018-11-03T07:08:12.064Z,4.93
2018-11-03T07:10:41.954Z,4.97
2018-11-03T07:13:12.133Z,4.99
2018-11-03T07:15:41.975Z,5.04
2018-11-03T07:18:11.829Z,5.16
2018-11-03T07:20:41.726Z,5.23
2018-11-03T07:23:11.594Z,5.29
2018-11-03T07:25:41.834Z,5.36
2018-11-03T07:28:11.770Z,5.41
2018-11-03T07:30:41.560Z,5.49
2018-11-03T07:33:11.571Z,5.57
2018-11-03T07:35:41.573Z,5.60
2018-11-03T07:38:11.502Z,5.66
2018-11-03T07:40:41.650Z,5.67
2018-11-03T07:43:11.695Z,5.69
2018-11-03T07:45:41.621Z,5.72
2018-11-03T07:48:11.687Z,5.75
2018-11-03T07:50:41.578Z,5.80
2018-11-03T07:53:11.373Z,5.80
2018-11-03T07:55:41.751Z,5.84
2018-11-03T07:58:11.766Z,5.88
2018-11-03T08:00:41.849Z,5.92
2018-11-03T08:03:11.561Z,5.94
2018-11-03T08:05:41.511Z,6.00
2018-11-03T08:08:11.626Z,6.03
2018-11-03T08:10:41.513Z,6.04
2018-11-03T08:13:11.401Z,6.06
2018-11-03T08:15:41.411Z,6.07
2018-11-03T08:18:11.564Z,6.09
2018-11-03T08:20:41.426Z,6.08
2018-11-03T08:23:11.404Z,6.10
2018-11-03T08:25:42.478Z,6.09
2018-11-03T08:28:12.723Z,6.16
2018-11-03T08:30:43.108Z,6.23
2018-11-03T08:33:12.979Z,6.32
2018-11-03T08:35:42.836Z,6.39
2018-11-03T08:38:12.907Z,6.47
2018-11-03T08:40:43.217Z,6.53
2018-11-03T08:43:13.388Z,6.58
2018-11-03T08:45:43.467Z,6.67
2018-11-03T08:48:13.514Z,6.76
2018-11-03T08:50:43.509Z,6.86
2018-11-03T08:53:14.634Z,7.03
2018-11-03T08:55:44.429Z,7.19
2018-11-03T08:58:14.209Z,7.27
2018-11-03T09:00:44.509Z,7.32
2018-11-03T09:03:14.478Z,7.36
2018-11-03T09:05:44.732Z,7.41
2018-11-03T09:08:14.773Z,7.47
2018-11-03T09:10:45.143Z,7.56
2018-11-03T09:13:15.195Z,7.62
2018-11-03T09:15:45.134Z,7.69
2018-11-03T09:18:15.000Z,7.78
2018-11-03T09:20:44.869Z,7.82
2018-11-03T09:23:14.792Z,7.84
2018-11-03T09:25:44.929Z,7.88
2018-11-03T09:28:14.841Z,7.87
2018-11-03T09:30:44.782Z,7.89
2018-11-03T09:33:14.717Z,7.94
2018-11-03T09:35:44.559Z,8.00
2018-11-03T09:38:14.664Z,8.01
2018-11-03T09:40:44.520Z,8.02
2018-11-03T09:43:14.692Z,8.06
2018-11-03T09:45:44.731Z,8.13
2018-11-03T09:48:14.618Z,8.17
2018-11-03T09:50:45.208Z,8.16
2018-11-03T09:53:14.867Z,8.20
2018-11-03T09:55:44.674Z,8.27
2018-11-03T09:58:14.485Z,8.29
2018-11-03T10:00:44.680Z,8.37
2018-11-03T10:03:14.706Z,8.37
2018-11-03T10:05:44.644Z,8.43
2018-11-03T10:08:14.632Z,8.55
2018-11-03T10:10:44.593Z,8.66
2018-11-03T10:13:14.470Z,8.71
2018-11-03T10:15:44.549Z,8.76
2018-11-03T10:18:14.395Z,8.80
2018-11-03T10:20:44.383Z,8.88
2018-11-03T10:23:14.393Z,8.94
2018-11-03T10:25:44.391Z,8.94
2018-11-03T10:28:14.590Z,8.98
2018-11-03T10:30:44.505Z,9.02
2018-11-03T10:33:15.183Z,9.04
2018-11-03T10:35:45.150Z,9.12
2018-11-03T10:38:15.178Z,9.21
2018-11-03T10:40:45.221Z,9.27
2018-11-03T10:43:15.209Z,9.31
2018-11-03T10:45:45.296Z,9.34
2018-11-03T10:48:15.736Z,9.29
2018-11-03T10:50:45.620Z,9.30
2018-11-03T10:53:15.458Z,9.29
2018-11-03T10:55:45.540Z,9.27
2018-11-03T10:58:15.449Z,9.21
2018-11-03T11:00:50.252Z,9.29
2018-11-03T11:03:25.402Z,9.31
2018-11-03T11:06:00.516Z,9.36
2018-11-03T11:08:35.659Z,9.40
2018-11-03T11:11:10.764Z,9.45
2018-11-03T11:13:41.952Z,9.47
2018-11-03T11:16:12.024Z,9.45
2018-11-03T11:18:42.386Z,9.48
2018-11-03T11:21:12.611Z,9.49
2018-11-03T11:23:42.580Z,9.49
2018-11-03T11:26:12.423Z,9.55
2018-11-03T11:28:42.751Z,9.56
2018-11-03T11:31:12.751Z,9.58
2018-11-03T11:33:42.574Z,9.59
2018-11-03T11:36:12.505Z,9.59
2018-11-03T11:38:42.839Z,9.58
2018-11-03T11:41:12.867Z,9.59
2018-11-03T11:43:42.728Z,9.59
2018-11-03T11:46:12.631Z,9.68
2018-11-03T11:48:42.527Z,9.76
2018-11-03T11:51:13.014Z,9.76
2018-11-03T11:53:42.988Z,9.79
2018-11-03T11:56:13.054Z,9.68
2018-11-03T11:58:43.007Z,9.63
2018-11-03T12:01:12.942Z,9.68
2018-11-03T12:03:43.004Z,9.65
2018-11-03T12:06:13.400Z,9.69
2018-11-03T12:08:43.344Z,9.76
2018-11-03T12:11:13.357Z,9.73
2018-11-03T12:13:43.279Z,9.77
2018-11-03T12:16:13.258Z,9.76
2018-11-03T12:18:43.107Z,9.82
2018-11-03T12:21:13.233Z,9.89
2018-11-03T12:23:43.192Z,9.95
2018-11-03T12:26:13.350Z,10.00
2018-11-03T12:28:43.141Z,10.07
2018-11-03T12:31:13.284Z,10.12
2018-11-03T12:33:43.487Z,10.12
2018-11-03T12:36:13.538Z,10.17
2018-11-03T12:38:43.589Z,10.22
2018-11-03T12:41:13.965Z,10.27
2018-11-03T12:43:43.731Z,10.37
2018-11-03T12:46:13.781Z,10.31
2018-11-03T12:48:43.579Z,10.41
2018-11-03T12:51:13.627Z,10.56
2018-11-03T12:53:43.444Z,10.70
2018-11-03T12:56:13.336Z,10.86
2018-11-03T12:58:43.570Z,11.06
2018-11-03T13:01:13.740Z,11.22
2018-11-03T13:03:44.259Z,11.37
2018-11-03T13:06:14.761Z,11.38
2018-11-03T13:08:44.932Z,11.35
2018-11-03T13:11:15.423Z,11.52
2018-11-03T13:13:45.431Z,11.78
2018-11-03T13:16:15.350Z,11.99
2018-11-03T13:18:45.336Z,12.01
2018-11-03T13:21:15.354Z,12.03
2018-11-03T13:23:45.204Z,12.22
2018-11-03T13:26:15.152Z,12.38
2018-11-03T13:28:45.032Z,12.52
2018-11-03T13:31:15.332Z,12.66
2018-11-03T13:33:45.129Z,12.73
2018-11-03T13:36:15.304Z,12.77
2018-11-03T13:38:45.222Z,12.68
2018-11-03T13:41:15.259Z,12.66
2018-11-03T13:43:45.124Z,12.67
2018-11-03T13:46:15.065Z,12.37
2018-11-03T13:48:45.267Z,12.30
2018-11-03T13:51:15.335Z,12.19
2018-11-03T13:53:45.293Z,11.99
2018-11-03T13:56:15.377Z,11.88
2018-11-03T13:58:45.439Z,11.74
2018-11-03T14:01:15.669Z,11.61
2018-11-03T14:03:45.789Z,11.39
2018-11-03T14:06:16.003Z,11.07
2018-11-03T14:08:46.396Z,10.92
2018-11-03T14:11:16.788Z,10.77
2018-11-03T14:13:47.097Z,10.62
2018-11-03T14:16:17.095Z,10.57
2018-11-03T14:18:46.901Z,10.49
2018-11-03T14:21:16.937Z,10.46
2018-11-03T14:23:46.956Z,10.52
2018-11-03T14:26:16.999Z,10.36
2018-11-03T14:28:47.197Z,10.57
2018-11-03T14:31:17.492Z,10.40
2018-11-03T14:33:47.460Z,10.29
2018-11-03T14:36:17.501Z,10.16
2018-11-03T14:38:47.405Z,10.06
2018-11-03T14:41:17.293Z,10.01
2018-11-03T14:43:47.301Z,10.03
2018-11-03T14:46:17.568Z,10.01
2018-11-03T14:48:47.692Z,9.99
2018-11-03T14:51:17.762Z,9.98
2018-11-03T14:53:47.911Z,9.90
2018-11-03T14:56:17.841Z,9.93
2018-11-03T14:58:47.749Z,9.88
2018-11-03T15:01:17.820Z,9.85
2018-11-03T15:03:47.940Z,9.82
2018-11-03T15:06:18.034Z,9.87
2018-11-03T15:08:48.087Z,9.82
2018-11-03T15:11:18.212Z,9.79
2018-11-03T15:13:48.365Z,9.85
2018-11-03T15:16:18.110Z,10.03
2018-11-03T15:18:48.102Z,10.00
2018-11-03T15:21:18.830Z,10.02
2018-11-03T15:23:48.660Z,10.06
2018-11-03T15:26:18.654Z,9.89
2018-11-03T15:28:48.507Z,9.87
2018-11-03T15:31:18.585Z,10.08
2018-11-03T15:33:48.572Z,9.98
2018-11-03T15:36:18.816Z,9.96
2018-11-03T15:38:48.896Z,9.80
2018-11-03T15:41:18.936Z,9.83
2018-11-03T15:43:49.091Z,10.02
2018-11-03T15:46:19.102Z,9.65
2018-11-03T15:48:49.254Z,9.46
2018-11-03T15:51:19.217Z,9.35
2018-11-03T15:53:49.267Z,9.30
2018-11-03T15:56:19.166Z,9.19
2018-11-03T15:58:48.925Z,9.09
2018-11-03T16:01:18.923Z,9.00
2018-11-03T16:03:48.801Z,8.93
2018-11-03T16:06:18.834Z,8.84
2018-11-03T16:08:48.863Z,8.72
2018-11-03T16:11:18.821Z,8.63
2018-11-03T16:13:48.786Z,8.55
2018-11-03T16:16:18.981Z,8.57
2018-11-03T16:18:49.155Z,8.68
2018-11-03T16:21:19.039Z,8.62
2018-11-03T16:23:49.029Z,8.40
2018-11-03T16:26:18.971Z,8.29
2018-11-03T16:28:48.883Z,8.21
2018-11-03T16:31:18.753Z,8.18
2018-11-03T16:33:55.871Z,8.12
2018-11-03T16:36:25.914Z,8.07
2018-11-03T16:38:56.093Z,8.00
2018-11-03T16:41:26.245Z,7.95
2018-11-03T16:43:56.109Z,7.89
2018-11-03T16:46:26.070Z,7.86
2018-11-03T16:48:56.065Z,7.82
2018-11-03T16:51:26.068Z,7.79
2018-11-03T16:53:56.032Z,7.75
2018-11-03T16:56:26.111Z,7.71
2018-11-03T16:58:56.352Z,7.66
2018-11-03T17:01:26.539Z,7.59
2018-11-03T17:03:56.438Z,7.57
2018-11-03T17:06:26.381Z,7.53
2018-11-03T17:08:56.507Z,7.49
2018-11-03T17:11:26.349Z,7.43
2018-11-03T17:13:56.373Z,7.43
2018-11-03T17:16:26.473Z,7.40
2018-11-03T17:18:56.415Z,7.37
2018-11-03T17:21:26.303Z,7.31
2018-11-03T17:23:56.451Z,7.26
2018-11-03T17:26:26.423Z,7.23
2018-11-03T17:28:56.552Z,7.20
2018-11-03T17:31:26.616Z,7.22
2018-11-03T17:33:56.587Z,7.23
2018-11-03T17:36:26.627Z,7.25
2018-11-03T17:38:56.385Z,7.19
2018-11-03T17:41:26.206Z,7.19
2018-11-03T17:43:56.320Z,7.14
2018-11-03T17:46:26.214Z,7.16
2018-11-03T17:48:56.603Z,7.14
2018-11-03T17:51:26.769Z,7.32
2018-11-03T17:53:56.756Z,7.22
2018-11-03T17:56:26.765Z,7.18
2018-11-03T17:58:56.861Z,7.17
2018-11-03T18:01:26.788Z,7.13
2018-11-03T18:03:56.716Z,7.11
2018-11-03T18:06:26.801Z,7.07
2018-11-03T18:08:57.009Z,7.06
2018-11-03T18:11:26.869Z,7.01
2018-11-03T18:13:57.170Z,6.99
2018-11-03T18:16:27.135Z,6.97
2018-11-03T18:18:57.325Z,6.95
2018-11-03T18:21:27.290Z,6.95
2018-11-03T18:23:57.656Z,6.96
2018-11-03T18:26:27.592Z,6.90
2018-11-03T18:28:57.415Z,6.91
2018-11-03T18:31:27.962Z,6.90
2018-11-03T18:33:58.181Z,6.91
2018-11-03T18:36:28.286Z,6.88
2018-11-03T18:38:58.242Z,6.90
2018-11-03T18:41:29.255Z,6.87
2018-11-03T18:43:59.630Z,6.85
2018-11-03T18:46:29.999Z,6.85
2018-11-03T18:49:00.347Z,6.81
2018-11-03T18:51:30.604Z,6.80
2018-11-03T18:54:00.648Z,6.83
2018-11-03T18:56:31.267Z,6.78
2018-11-03T18:59:01.504Z,6.73
2018-11-03T19:01:32.532Z,6.72
2018-11-03T19:04:02.651Z,6.70
2018-11-03T19:06:33.352Z,6.64
2018-11-03T19:09:05.409Z,6.60
2018-11-03T19:11:36.772Z,6.55
2018-11-03T19:14:06.874Z,6.50
2018-11-03T19:16:37.115Z,6.44
2018-11-03T19:19:07.730Z,6.38
2018-11-03T19:21:37.827Z,6.30
2018-11-03T19:24:07.916Z,6.32
2018-11-03T19:26:37.698Z,6.17
2018-11-03T19:29:08.828Z,6.15
2018-11-03T19:31:38.782Z,6.11
2018-11-03T19:34:08.913Z,6.13
2018-11-03T19:36:38.929Z,6.11
2018-11-03T19:39:09.857Z,6.10
2018-11-03T19:41:40.251Z,6.13
2018-11-03T19:44:11.896Z,6.18
2018-11-03T19:46:42.253Z,6.21
2018-11-03T19:49:12.393Z,6.24
2018-11-03T19:51:43.120Z,6.21
2018-11-03T19:54:13.388Z,6.21
2018-11-03T19:56:44.805Z,6.22
2018-11-03T19:59:15.113Z,6.24
2018-11-03T20:01:46.249Z,6.23
2018-11-03T20:04:16.160Z,6.26
2018-11-03T20:06:46.130Z,6.25
2018-11-03T20:09:16.319Z,6.25
2018-11-03T20:11:46.470Z,6.24
2018-11-03T20:14:16.329Z,6.18
2018-11-03T20:16:46.274Z,6.12
2018-11-03T20:19:16.404Z,6.11
2018-11-03T20:21:46.533Z,6.02
2018-11-03T20:24:16.623Z,5.90
2018-11-03T20:26:46.805Z,5.89
2018-11-03T20:29:16.785Z,5.85
2018-11-03T20:31:46.981Z,5.86
2018-11-03T20:34:16.943Z,5.85
2018-11-03T20:36:46.957Z,5.85
2018-11-03T20:39:17.251Z,5.85
2018-11-03T20:41:47.558Z,5.85
2018-11-03T20:44:17.664Z,5.83
2018-11-03T20:46:47.807Z,5.77
2018-11-03T20:49:18.142Z,5.57
2018-11-03T20:51:48.172Z,5.48
2018-11-03T20:54:18.158Z,5.42
2018-11-03T20:56:48.200Z,5.33
2018-11-03T20:59:18.740Z,5.32
2018-11-03T21:01:48.669Z,5.32
2018-11-03T21:04:18.631Z,5.28
2018-11-03T21:06:48.487Z,5.21
2018-11-03T21:09:18.798Z,5.20
2018-11-03T21:11:48.879Z,5.20
2018-11-03T21:14:18.985Z,5.20
2018-11-03T21:16:49.480Z,5.24
2018-11-03T21:19:19.491Z,5.23
2018-11-03T21:21:49.409Z,5.26
2018-11-03T21:24:19.340Z,5.29
2018-11-03T21:26:49.503Z,5.30
2018-11-03T21:29:19.596Z,5.28
2018-11-03T21:31:49.600Z,5.16
2018-11-03T21:34:19.606Z,5.13
2018-11-03T21:36:49.826Z,5.13
2018-11-03T21:39:20.048Z,5.14
2018-11-03T21:41:49.950Z,5.13
2018-11-03T21:44:20.352Z,5.13
2018-11-03T21:46:50.444Z,5.14
2018-11-03T21:49:20.528Z,5.16
2018-11-03T21:51:50.517Z,5.14
2018-11-03T21:54:20.653Z,5.16
2018-11-03T21:56:50.771Z,5.19
2018-11-03T21:59:20.797Z,4.97
2018-11-03T22:01:50.896Z,4.87
2018-11-03T22:04:21.001Z,4.80
2018-11-03T22:06:51.022Z,4.74
2018-11-03T22:09:21.047Z,4.80
2018-11-03T22:11:50.934Z,4.89
2018-11-03T22:14:20.936Z,4.91
2018-11-03T22:16:51.065Z,4.89
2018-11-03T22:19:21.161Z,4.88
2018-11-03T22:21:51.198Z,4.91
2018-11-03T22:24:21.076Z,4.78
2018-11-03T22:26:51.324Z,4.80
2018-11-03T22:29:21.416Z,4.82
2018-11-03T22:31:51.213Z,4.81
2018-11-03T22:34:21.151Z,4.79
2018-11-03T22:36:51.483Z,4.79
2018-11-03T22:39:21.877Z,4.77
2018-11-03T22:41:52.048Z,4.75
2018-11-03T22:44:22.030Z,4.72
2018-11-03T22:46:52.065Z,4.70
2018-11-03T22:49:22.272Z,4.72
2018-11-03T22:51:52.509Z,4.74
2018-11-03T22:54:22.317Z,4.71
2018-11-03T22:56:52.410Z,4.70
2018-11-03T22:59:22.509Z,4.72
2018-11-03T23:01:52.538Z,4.70
2018-11-03T23:04:22.420Z,4.56
2018-11-03T23:06:52.411Z,4.68
2018-11-03T23:09:22.457Z,4.57
2018-11-03T23:11:52.512Z,4.57
2018-11-03T23:14:22.427Z,4.52
2018-11-03T23:16:52.490Z,4.53
2018-11-03T23:19:22.469Z,4.49
2018-11-03T23:21:52.640Z,4.52
2018-11-03T23:24:23.125Z,4.53
2018-11-03T23:26:53.166Z,4.52
2018-11-03T23:29:23.554Z,4.51
2018-11-03T23:31:54.054Z,4.52
2018-11-03T23:34:24.064Z,4.51
2018-11-03T23:36:54.141Z,4.53
2018-11-03T23:39:24.096Z,4.52
2018-11-03T23:41:53.947Z,4.53
2018-11-03T23:44:23.875Z,4.56
2018-11-03T23:46:53.841Z,4.53
2018-11-03T23:49:23.898Z,4.51
2018-11-03T23:51:53.990Z,4.49
2018-11-03T23:54:24.034Z,4.46
2018-11-03T23:56:54.261Z,4.48
2018-11-03T23:59:24.353Z,4.43
